Time;durP1;ratioP1;P1;durP2;ratioP2;P2;SDS_P1;SDS_P2;PMS_P1;PMS_P2;Temp;Humidity;BMP_temperature;BMP_pressure;BME280_temperature;BME280_humidity;BME280_pressure;Samples;Min_cycle;Max_cycle;Signal;HPM_P1;HPM_P2
2022/03/09 00:00:40;;;;;;;31.90;23.60;;;0.90;99.90;;;;;;5050886;28;20473;-72
2022/03/09 00:03:07;;;;;;;38.07;23.77;;;0.70;99.90;;;;;;5051009;28;20449;-73
2022/03/09 00:05:34;;;;;;;33.47;23.53;;;0.70;99.90;;;;;;5050905;28;20890;-73
2022/03/09 00:08:01;;;;;;;36.60;23.13;;;0.70;99.90;;;;;;5050930;28;20865;-74
2022/03/09 00:10:28;;;;;;;32.23;22.67;;;0.70;99.90;;;;;;5050480;28;20490;-73
2022/03/09 00:12:57;;;;;;;35.90;23.40;;;0.80;99.90;;;;;;5050646;28;20454;-73
2022/03/09 00:15:25;;;;;;;37.00;24.10;;;0.80;99.90;;;;;;5050460;28;20462;-74
2022/03/09 00:17:52;;;;;;;34.53;23.27;;;0.90;99.90;;;;;;5052195;28;20453;-72
2022/03/09 00:20:19;;;;;;;32.07;22.17;;;0.80;99.90;;;;;;5051664;28;20526;-74
2022/03/09 00:22:46;;;;;;;31.53;21.47;;;0.90;99.90;;;;;;5051992;28;20461;-73
2022/03/09 00:25:13;;;;;;;33.23;21.33;;;1.00;99.90;;;;;;5051405;28;20454;-73
2022/03/09 00:27:40;;;;;;;37.03;23.13;;;1.00;99.90;;;;;;5050351;28;20982;-72
2022/03/09 00:30:09;;;;;;;36.07;23.23;;;0.90;99.90;;;;;;5050375;28;21016;-73
2022/03/09 00:32:41;;;;;;;33.20;23.67;;;0.80;99.90;;;;;;5050168;28;20486;-68
2022/03/09 00:35:09;;;;;;;37.67;23.00;;;0.90;99.90;;;;;;5050572;28;20630;-73
2022/03/09 00:37:36;;;;;;;34.07;23.07;;;1.00;99.90;;;;;;5050169;28;20484;-72
2022/03/09 00:40:04;;;;;;;35.73;24.00;;;1.00;99.90;;;;;;5050353;28;20468;-72
2022/03/09 00:42:35;;;;;;;34.30;22.87;;;1.00;99.90;;;;;;5050203;28;20458;-72
2022/03/09 00:45:03;;;;;;;33.53;22.60;;;1.00;99.90;;;;;;5050331;28;20938;-70
2022/03/09 00:47:30;;;;;;;31.93;23.50;;;1.00;99.90;;;;;;5050335;28;20838;-72
2022/03/09 00:49:58;;;;;;;36.87;22.40;;;0.80;99.90;;;;;;5049881;28;20489;-74
2022/03/09 00:52:26;;;;;;;36.40;22.20;;;0.80;99.90;;;;;;5050294;28;20819;-70
2022/03/09 00:54:53;;;;;;;31.77;24.00;;;0.90;99.90;;;;;;5048628;28;20462;-71
2022/03/09 00:57:20;;;;;;;36.77;24.20;;;0.80;99.90;;;;;;5049933;28;20474;-73
2022/03/09 00:59:47;;;;;;;35.10;23.73;;;0.70;99.90;;;;;;5049493;28;20445;-74
2022/03/09 01:02:14;;;;;;;35.53;22.77;;;0.90;99.90;;;;;;5049596;28;20454;-71
2022/03/09 01:04:42;;;;;;;32.30;21.83;;;1.10;99.90;;;;;;5049668;28;20461;-71
2022/03/09 01:07:10;;;;;;;33.80;23.37;;;1.10;99.90;;;;;;5049740;28;20810;-73
2022/03/09 01:09:37;;;;;;;36.20;21.53;;;1.20;99.90;;;;;;5049584;28;20493;-73
2022/03/09 01:12:05;;;;;;;33.27;24.30;;;1.20;99.90;;;;;;5049790;28;20450;-72
2022/03/09 01:14:32;;;;;;;33.90;23.10;;;1.30;99.90;;;;;;5049935;28;20462;-71
2022/03/09 01:17:00;;;;;;;35.40;22.40;;;1.30;99.90;;;;;;5049371;28;20481;-72
2022/03/09 01:19:30;;;;;;;35.67;23.50;;;1.20;99.90;;;;;;5049766;28;20458;-73
2022/03/09 01:21:57;;;;;;;35.87;22.50;;;1.30;99.90;;;;;;5049521;28;20930;-70
2022/03/09 01:24:25;;;;;;;37.90;24.97;;;1.40;99.90;;;;;;5049976;28;20454;-71
2022/03/09 01:26:52;;;;;;;36.57;24.17;;;1.40;99.90;;;;;;5049557;28;20470;-70
2022/03/09 01:29:20;;;;;;;33.60;22.80;;;1.50;99.90;;;;;;5051665;28;20921;-71
2022/03/09 01:31:47;;;;;;;32.80;23.70;;;1.40;99.90;;;;;;5053720;28;20776;-75
2022/03/09 01:34:14;;;;;;;34.53;23.50;;;1.30;99.90;;;;;;5053795;28;20751;-69
2022/03/09 01:36:41;;;;;;;34.00;21.37;;;1.30;99.90;;;;;;5053608;28;20469;-69
2022/03/09 01:39:08;;;;;;;34.00;22.73;;;1.30;99.90;;;;;;5053817;28;20454;-73
2022/03/09 01:41:37;;;;;;;34.57;22.63;;;1.20;99.90;;;;;;5053678;28;20488;-74
2022/03/09 01:44:09;;;;;;;36.50;22.30;;;1.00;99.90;;;;;;5053625;28;20450;-71
2022/03/09 01:46:37;;;;;;;32.03;22.47;;;1.10;99.90;;;;;;5053003;28;20493;-72
2022/03/09 01:49:04;;;;;;;36.47;23.57;;;1.00;99.90;;;;;;5053368;28;20457;-72
2022/03/09 01:51:32;;;;;;;29.53;20.90;;;1.00;99.90;;;;;;5052817;28;20803;-71
2022/03/09 01:54:00;;;;;;;33.77;21.83;;;1.00;99.90;;;;;;5053378;28;20470;-72
2022/03/09 01:56:28;;;;;;;32.97;22.87;;;1.00;99.90;;;;;;5053228;28;20478;-72
2022/03/09 01:58:56;;;;;;;28.90;19.60;;;1.10;99.90;;;;;;5053253;28;20458;-73
2022/03/09 02:01:24;;;;;;;30.23;21.73;;;1.10;99.90;;;;;;5053026;28;20454;-73
2022/03/09 02:03:51;;;;;;;36.77;22.33;;;0.90;99.90;;;;;;5053386;28;20643;-74
2022/03/09 02:06:18;;;;;;;31.57;20.27;;;0.90;99.90;;;;;;5053120;28;20607;-71
2022/03/09 02:11:32;;;;;;;34.03;21.53;;;0.80;99.90;;;;;;5052787;28;20441;-74
2022/03/09 02:14:01;;;;;;;35.93;23.50;;;0.70;99.90;;;;;;5053077;28;20476;-72
2022/03/09 02:16:28;;;;;;;32.83;20.57;;;0.60;99.90;;;;;;5052863;28;20473;-70
2022/03/09 02:18:55;;;;;;;37.30;22.67;;;0.60;99.90;;;;;;5052951;28;20452;-71
2022/03/09 02:21:26;;;;;;;32.57;22.07;;;0.60;99.90;;;;;;5052424;28;20453;-71
2022/03/09 02:23:55;;;;;;;36.23;22.23;;;0.70;99.90;;;;;;5052748;28;20819;-71
2022/03/09 02:26:22;;;;;;;32.50;20.10;;;0.90;99.90;;;;;;5052317;28;20481;-75
2022/03/09 02:28:51;;;;;;;28.30;19.00;;;0.80;99.90;;;;;;5052709;28;20457;-73
2022/03/09 02:31:18;;;;;;;33.13;21.17;;;0.80;99.90;;;;;;5052767;28;21005;-73
2022/03/09 02:33:46;;;;;;;35.50;21.13;;;0.90;99.90;;;;;;5052251;28;20481;-74
2022/03/09 02:36:13;;;;;;;30.97;20.93;;;0.70;99.90;;;;;;5052611;28;20465;-73
2022/03/09 02:38:40;;;;;;;29.03;21.00;;;0.70;99.90;;;;;;5052184;28;20473;-72
2022/03/09 02:41:09;;;;;;;31.10;21.10;;;0.70;99.90;;;;;;5052254;28;20461;-73
2022/03/09 02:43:36;;;;;;;32.20;22.70;;;0.70;99.90;;;;;;5052569;28;20450;-71
2022/03/09 02:46:03;;;;;;;31.37;21.50;;;0.70;99.90;;;;;;5052401;28;20469;-73
2022/03/09 02:48:30;;;;;;;33.07;21.40;;;0.70;99.90;;;;;;5052082;28;20450;-70
2022/03/09 02:50:57;;;;;;;30.63;20.43;;;0.60;99.90;;;;;;5052346;28;20515;-72
2022/03/09 02:53:24;;;;;;;35.77;23.23;;;0.60;99.90;;;;;;5052280;28;20470;-75
2022/03/09 02:55:51;;;;;;;32.97;21.50;;;0.70;99.90;;;;;;5052100;28;20492;-73
2022/03/09 02:58:20;;;;;;;32.43;21.90;;;0.70;99.90;;;;;;5052433;28;20464;-75
2022/03/09 03:00:47;;;;;;;34.10;23.10;;;0.70;99.90;;;;;;5052390;28;20456;-71
2022/03/09 03:03:14;;;;;;;36.63;22.17;;;0.90;99.90;;;;;;5051876;28;20457;-71
2022/03/09 03:05:41;;;;;;;34.40;23.33;;;1.00;99.90;;;;;;5051737;28;20506;-72
2022/03/09 03:08:09;;;;;;;33.00;21.67;;;1.10;99.90;;;;;;5052077;28;20450;-73
2022/03/09 03:10:36;;;;;;;32.90;22.47;;;1.10;99.90;;;;;;5051960;28;20500;-74
2022/03/09 03:13:03;;;;;;;33.03;23.10;;;1.00;99.90;;;;;;5052277;28;20457;-73
2022/03/09 03:15:31;;;;;;;30.47;21.77;;;1.00;99.90;;;;;;5052060;28;20454;-71
2022/03/09 03:17:59;;;;;;;31.60;20.03;;;1.00;99.90;;;;;;5051876;28;20462;-73
2022/03/09 03:20:26;;;;;;;34.30;22.50;;;0.90;99.90;;;;;;5052076;28;20465;-73
2022/03/09 03:22:53;;;;;;;27.00;18.83;;;1.00;99.90;;;;;;5051894;28;20472;-74
2022/03/09 03:25:21;;;;;;;36.33;21.40;;;1.00;99.90;;;;;;5051635;28;20454;-72
2022/03/09 03:27:48;;;;;;;32.03;23.13;;;1.10;99.90;;;;;;5051666;28;20453;-73
2022/03/09 03:30:15;;;;;;;31.23;21.00;;;0.90;99.90;;;;;;5051348;28;20493;-73
2022/03/09 03:32:43;;;;;;;32.90;22.10;;;0.90;99.90;;;;;;5051310;28;20504;-72
2022/03/09 03:35:10;;;;;;;37.87;23.00;;;0.90;99.90;;;;;;5051452;28;20454;-71
2022/03/09 03:37:38;;;;;;;33.63;23.20;;;0.90;99.90;;;;;;5051575;28;20473;-71
2022/03/09 03:40:06;;;;;;;35.93;23.30;;;1.00;99.90;;;;;;5051568;28;20481;-72
2022/03/09 03:42:33;;;;;;;36.00;22.73;;;0.90;99.90;;;;;;5051412;28;20450;-74
2022/03/09 03:45:00;;;;;;;33.47;23.53;;;0.80;99.90;;;;;;5051265;28;20458;-72
2022/03/09 03:47:27;;;;;;;33.47;21.60;;;0.90;99.90;;;;;;5051271;28;20828;-73
2022/03/09 03:49:56;;;;;;;37.47;24.17;;;0.90;99.90;;;;;;5050905;28;20861;-73
2022/03/09 03:52:23;;;;;;;30.00;21.07;;;0.90;99.90;;;;;;5050574;28;20457;-73
2022/03/09 03:54:50;;;;;;;35.70;23.17;;;0.90;99.90;;;;;;5050913;28;20803;-69
2022/03/09 03:57:17;;;;;;;35.30;24.50;;;0.90;99.90;;;;;;5050633;28;21082;-73
2022/03/09 03:59:44;;;;;;;35.27;24.00;;;1.00;99.90;;;;;;5051168;28;20454;-73
2022/03/09 04:02:11;;;;;;;31.80;22.10;;;1.10;99.90;;;;;;5051157;28;20459;-75
2022/03/09 04:04:38;;;;;;;33.63;23.60;;;1.00;99.90;;;;;;5051214;28;20450;-70
2022/03/09 04:07:07;;;;;;;35.70;22.57;;;1.00;99.90;;;;;;5050982;28;20481;-69
2022/03/09 04:09:34;;;;;;;35.00;22.67;;;0.90;99.90;;;;;;5051040;28;20560;-70
2022/03/09 04:12:01;;;;;;;36.00;23.77;;;1.00;99.90;;;;;;5050892;28;20849;-74
2022/03/09 04:14:28;;;;;;;38.13;22.30;;;1.00;99.90;;;;;;5050559;28;20462;-74
2022/03/09 04:16:55;;;;;;;35.60;22.67;;;0.90;99.90;;;;;;5050756;28;20478;-72
2022/03/09 04:19:23;;;;;;;34.20;21.77;;;0.80;99.90;;;;;;5050729;28;20454;-71
2022/03/09 04:21:50;;;;;;;31.43;21.50;;;0.80;99.90;;;;;;5050914;28;20569;-75
2022/03/09 04:24:18;;;;;;;33.70;22.50;;;0.80;99.90;;;;;;5050755;28;20484;-72
2022/03/09 04:26:45;;;;;;;35.73;22.83;;;0.80;99.90;;;;;;5050211;28;20470;-74
2022/03/09 04:29:12;;;;;;;36.13;21.97;;;0.70;99.90;;;;;;5050065;28;21019;-73
2022/03/09 04:31:40;;;;;;;30.53;21.50;;;0.60;99.90;;;;;;5050314;28;20500;-74
2022/03/09 04:34:07;;;;;;;31.60;21.73;;;0.60;99.90;;;;;;5050597;28;20450;-69
2022/03/09 04:36:34;;;;;;;34.87;22.63;;;0.60;99.90;;;;;;5050305;28;20473;-73
2022/03/09 04:39:01;;;;;;;34.10;22.80;;;0.60;99.90;;;;;;5050379;28;20450;-73
2022/03/09 04:41:31;;;;;;;38.70;23.10;;;0.50;99.90;;;;;;5051458;28;20442;-73
2022/03/09 04:43:58;;;;;;;37.67;22.80;;;0.50;99.90;;;;;;5050192;28;20457;-72
2022/03/09 04:46:25;;;;;;;33.97;23.00;;;0.50;99.90;;;;;;5051419;28;20474;-72
2022/03/09 04:48:53;;;;;;;32.50;22.20;;;0.70;99.90;;;;;;5050926;28;20446;-71
2022/03/09 04:51:20;;;;;;;32.97;21.60;;;0.60;99.90;;;;;;5050519;28;20489;-71
2022/03/09 04:53:47;;;;;;;39.43;25.07;;;0.60;99.90;;;;;;5051264;28;20526;-73
2022/03/09 04:56:15;;;;;;;32.93;22.73;;;0.40;99.90;;;;;;5050239;28;20474;-74
2022/03/09 04:58:44;;;;;;;37.20;22.43;;;0.40;99.90;;;;;;5049999;28;20932;-73
2022/03/09 05:01:11;;;;;;;34.40;23.70;;;0.30;99.90;;;;;;5049981;28;20515;-71
2022/03/09 05:03:38;;;;;;;35.57;23.43;;;0.40;99.90;;;;;;5049972;28;20941;-72
2022/03/09 05:06:05;;;;;;;34.47;23.90;;;0.50;99.90;;;;;;5050008;28;20950;-71
2022/03/09 05:08:32;;;;;;;31.77;22.27;;;0.50;99.90;;;;;;5049891;28;20826;-74
2022/03/09 05:10:59;;;;;;;30.50;21.60;;;0.70;99.90;;;;;;5049590;28;20486;-73
2022/03/09 05:13:27;;;;;;;31.70;22.50;;;0.80;99.90;;;;;;5049918;28;20457;-71
2022/03/09 05:15:56;;;;;;;31.00;21.80;;;0.80;99.90;;;;;;5049822;28;20505;-72
2022/03/09 05:18:23;;;;;;;28.60;20.20;;;0.70;99.90;;;;;;5049883;28;20836;-72
2022/03/09 05:20:50;;;;;;;33.00;22.67;;;0.70;99.90;;;;;;5049567;28;20450;-75
2022/03/09 05:23:17;;;;;;;31.90;21.37;;;0.70;99.90;;;;;;5049437;28;20969;-73
2022/03/09 05:25:45;;;;;;;35.47;21.30;;;0.70;99.90;;;;;;5049736;28;20938;-75
2022/03/09 05:28:12;;;;;;;33.83;22.80;;;0.90;99.90;;;;;;5049493;28;20930;-72
2022/03/09 05:30:39;;;;;;;35.03;22.70;;;0.80;99.90;;;;;;5049048;28;21013;-71
2022/03/09 05:33:07;;;;;;;36.43;23.13;;;0.70;99.90;;;;;;5049234;28;20501;-72
2022/03/09 05:35:36;;;;;;;35.47;22.67;;;0.60;99.90;;;;;;5049267;28;20461;-72
2022/03/09 05:38:03;;;;;;;33.73;20.90;;;0.70;99.90;;;;;;5049610;28;20458;-73
2022/03/09 05:40:30;;;;;;;33.60;22.93;;;0.70;99.90;;;;;;5049654;28;20450;-73
2022/03/09 05:42:57;;;;;;;37.27;25.70;;;0.70;99.90;;;;;;5049488;28;20454;-71
2022/03/09 05:45:25;;;;;;;42.13;24.50;;;0.60;99.90;;;;;;5049546;28;20449;-72
2022/03/09 05:47:52;;;;;;;38.60;24.60;;;0.80;99.90;;;;;;5049296;28;20454;-72
2022/03/09 05:50:21;;;;;;;34.70;21.97;;;0.90;99.90;;;;;;5048966;28;20458;-73
2022/03/09 05:52:48;;;;;;;39.40;23.33;;;1.00;99.90;;;;;;5049673;28;20446;-73
2022/03/09 05:55:15;;;;;;;36.27;24.00;;;1.00;99.90;;;;;;5048875;28;20488;-75
2022/03/09 05:57:42;;;;;;;36.77;23.03;;;1.10;99.90;;;;;;5049256;28;20926;-72
2022/03/09 06:00:10;;;;;;;32.77;20.57;;;1.10;99.90;;;;;;5049428;28;20454;-75
2022/03/09 06:02:39;;;;;;;35.37;23.43;;;0.70;99.90;;;;;;5049170;28;20477;-75
2022/03/09 06:05:07;;;;;;;38.37;24.13;;;0.60;99.90;;;;;;5049428;28;20461;-71
2022/03/09 06:07:35;;;;;;;30.80;21.80;;;0.70;99.90;;;;;;5049278;28;20465;-72
2022/03/09 06:10:03;;;;;;;33.87;23.10;;;0.80;99.90;;;;;;5049299;28;20771;-73
2022/03/09 06:12:30;;;;;;;37.03;23.47;;;0.70;99.90;;;;;;5049033;28;20489;-71
2022/03/09 06:14:58;;;;;;;36.50;24.57;;;0.60;99.90;;;;;;5051183;28;20512;-73
2022/03/09 06:17:25;;;;;;;33.13;23.70;;;0.70;99.90;;;;;;5052930;28;20974;-74
2022/03/09 06:19:52;;;;;;;40.20;24.77;;;0.70;99.90;;;;;;5052860;28;20515;-77
2022/03/09 06:22:19;;;;;;;32.93;24.00;;;0.80;99.90;;;;;;5052900;28;20537;-78
2022/03/09 06:24:47;;;;;;;31.60;22.37;;;0.90;99.90;;;;;;5052441;28;20461;-74
2022/03/09 06:27:14;;;;;;;35.47;23.20;;;0.90;99.90;;;;;;5052682;28;20489;-73
2022/03/09 06:29:41;;;;;;;34.83;21.03;;;1.10;99.90;;;;;;5052425;28;20460;-71
2022/03/09 06:32:09;;;;;;;30.93;23.63;;;0.90;99.90;;;;;;5052355;28;20497;-69
2022/03/09 06:34:36;;;;;;;36.90;23.77;;;0.80;99.90;;;;;;5052521;28;20460;-74
2022/03/09 06:37:04;;;;;;;36.33;24.80;;;0.80;99.90;;;;;;5052662;28;20454;-70
2022/03/09 06:39:31;;;;;;;33.30;23.03;;;1.00;99.90;;;;;;5052584;28;20453;-74
2022/03/09 06:41:59;;;;;;;33.03;22.40;;;1.00;99.90;;;;;;5052553;28;20450;-77
2022/03/09 06:44:26;;;;;;;33.50;22.97;;;1.00;99.90;;;;;;5052370;28;20450;-75
2022/03/09 06:46:53;;;;;;;35.87;23.63;;;0.90;99.90;;;;;;5052453;28;20519;-76
2022/03/09 06:49:20;;;;;;;34.00;22.00;;;1.20;99.90;;;;;;5052474;28;20476;-76
2022/03/09 06:51:47;;;;;;;31.43;23.40;;;1.30;99.90;;;;;;5052304;28;21031;-73
2022/03/09 06:54:14;;;;;;;33.80;22.47;;;1.30;99.90;;;;;;5051947;28;20461;-76
2022/03/09 06:56:41;;;;;;;33.53;22.97;;;1.50;99.90;;;;;;5051859;28;20470;-73
2022/03/09 06:59:10;;;;;;;33.67;22.63;;;1.60;99.90;;;;;;5051988;28;20806;-72
2022/03/09 07:01:37;;;;;;;33.33;22.23;;;1.60;99.90;;;;;;5052162;28;20458;-70
2022/03/09 07:04:04;;;;;;;35.03;22.87;;;1.90;99.90;;;;;;5052054;28;20936;-73
2022/03/09 07:06:31;;;;;;;36.73;23.70;;;2.20;99.90;;;;;;5052063;28;20482;-71
2022/03/09 07:08:58;;;;;;;38.97;24.83;;;2.30;99.90;;;;;;5051925;28;20457;-71
2022/03/09 07:11:26;;;;;;;38.70;24.20;;;2.40;99.90;;;;;;5050518;28;20486;-72
2022/03/09 07:13:53;;;;;;;34.37;25.50;;;2.60;99.90;;;;;;5051847;28;20579;-71
2022/03/09 07:16:21;;;;;;;33.40;22.27;;;2.80;99.90;;;;;;5051694;28;20477;-72
2022/03/09 07:18:49;;;;;;;34.20;23.00;;;2.90;99.90;;;;;;5051779;28;20804;-70
2022/03/09 07:21:16;;;;;;;32.60;23.77;;;3.10;99.90;;;;;;5051807;28;20446;-70
2022/03/09 07:23:43;;;;;;;32.33;22.93;;;3.00;99.90;;;;;;5051156;28;20934;-69
2022/03/09 07:26:10;;;;;;;31.00;21.67;;;3.00;99.90;;;;;;5049507;28;20470;-70
2022/03/09 07:28:38;;;;;;;29.80;21.47;;;3.00;99.90;;;;;;5051173;28;20503;-71
2022/03/09 07:31:05;;;;;;;33.93;23.03;;;2.90;99.90;;;;;;5051395;28;20477;-69
2022/03/09 07:33:33;;;;;;;32.43;22.40;;;2.80;99.90;;;;;;5051422;28;20485;-69
2022/03/09 07:36:01;;;;;;;34.97;23.73;;;2.60;99.90;;;;;;5051422;28;20527;-70
2022/03/09 07:38:28;;;;;;;28.37;20.67;;;2.40;99.90;;;;;;5051427;28;20462;-70
2022/03/09 07:40:56;;;;;;;29.27;20.17;;;2.40;99.90;;;;;;5051160;28;20922;-69
2022/03/09 07:43:23;;;;;;;27.73;19.80;;;2.60;99.90;;;;;;5051271;28;20532;-70
2022/03/09 07:45:50;;;;;;;31.07;21.70;;;2.60;99.90;;;;;;5050844;28;20553;-70
2022/03/09 07:48:17;;;;;;;33.50;20.37;;;2.90;99.90;;;;;;5050985;28;20453;-70
2022/03/09 07:50:46;;;;;;;32.97;21.50;;;3.20;99.90;;;;;;5051188;28;20477;-69
2022/03/09 07:53:13;;;;;;;32.30;22.13;;;3.30;99.90;;;;;;5050889;28;20457;-67
2022/03/09 07:55:40;;;;;;;30.90;20.83;;;3.40;99.90;;;;;;5050612;28;20588;-71
2022/03/09 07:58:07;;;;;;;30.80;20.97;;;3.60;99.90;;;;;;5050847;28;20934;-69
2022/03/09 08:00:34;;;;;;;30.20;22.53;;;3.80;99.90;;;;;;5050801;28;20453;-70
2022/03/09 08:03:01;;;;;;;27.90;20.43;;;4.10;99.90;;;;;;5050807;28;20548;-75
2022/03/09 08:05:30;;;;;;;29.57;21.33;;;4.30;99.90;;;;;;5050523;28;20477;-76
2022/03/09 08:07:58;;;;;;;26.80;20.40;;;4.10;99.90;;;;;;5050790;28;20537;-68
2022/03/09 08:10:25;;;;;;;30.07;20.97;;;4.00;99.90;;;;;;5050827;28;20841;-69
2022/03/09 08:12:52;;;;;;;31.93;20.60;;;4.10;99.90;;;;;;5050681;28;20497;-72
2022/03/09 08:15:19;;;;;;;29.80;21.70;;;4.20;99.90;;;;;;5050934;28;20446;-70
2022/03/09 08:17:46;;;;;;;31.13;22.00;;;4.10;99.90;;;;;;5050693;28;20458;-70
2022/03/09 08:20:14;;;;;;;30.43;21.63;;;4.20;99.90;;;;;;5050247;28;20462;-68
2022/03/09 08:22:42;;;;;;;30.50;20.97;;;4.40;99.90;;;;;;5050480;28;20458;-72
2022/03/09 08:25:11;;;;;;;28.60;20.97;;;4.50;99.90;;;;;;5050427;28;20457;-69
2022/03/09 08:27:38;;;;;;;30.93;21.90;;;4.60;99.90;;;;;;5048895;28;20462;-70
2022/03/09 08:30:05;;;;;;;27.40;19.60;;;4.60;99.90;;;;;;5050556;28;20458;-69
2022/03/09 08:32:33;;;;;;;28.50;21.63;;;4.80;99.90;;;;;;5050234;28;20501;-69
2022/03/09 08:35:00;;;;;;;31.10;21.63;;;4.80;99.90;;;;;;5050207;28;20465;-67
2022/03/09 08:37:27;;;;;;;30.10;22.27;;;4.90;99.90;;;;;;5049706;28;21008;-67
2022/03/09 08:39:54;;;;;;;32.03;20.13;;;4.80;99.90;;;;;;5050285;28;20458;-69
2022/03/09 08:42:22;;;;;;;28.93;20.37;;;4.80;99.90;;;;;;5050135;28;20450;-70
2022/03/09 08:44:50;;;;;;;30.43;20.37;;;4.80;99.90;;;;;;5050324;28;20450;-69
2022/03/09 08:47:18;;;;;;;33.97;21.87;;;5.20;99.90;;;;;;5049956;28;20474;-69
2022/03/09 08:49:45;;;;;;;33.23;22.67;;;5.30;99.90;;;;;;5049929;28;20839;-67
2022/03/09 08:52:13;;;;;;;37.10;25.07;;;5.70;99.90;;;;;;5049928;28;20504;-71
2022/03/09 08:54:41;;;;;;;32.97;24.10;;;6.00;99.90;;;;;;5047858;28;20988;-71
2022/03/09 08:57:09;;;;;;;32.47;23.33;;;6.30;99.60;;;;;;5049342;28;20474;-68
2022/03/09 08:59:38;;;;;;;32.70;22.00;;;6.30;99.00;;;;;;5030185;28;20538;-69
2022/03/09 09:02:05;;;;;;;33.83;24.83;;;6.20;98.50;;;;;;5030166;28;20513;-69
2022/03/09 09:04:32;;;;;;;28.90;20.97;;;6.00;99.70;;;;;;5030151;28;20451;-69
2022/03/09 09:06:59;;;;;;;33.10;21.63;;;6.30;98.10;;;;;;5029781;28;20486;-70
2022/03/09 09:09:26;;;;;;;30.97;21.50;;;6.40;97.20;;;;;;5029943;28;20461;-71
2022/03/09 09:11:54;;;;;;;31.17;21.53;;;6.60;96.70;;;;;;5029770;28;20817;-70
2022/03/09 09:14:22;;;;;;;28.53;21.50;;;6.50;94.00;;;;;;5029462;28;21004;-70
2022/03/09 09:16:50;;;;;;;28.73;21.73;;;6.40;96.10;;;;;;5029690;28;20487;-70
2022/03/09 09:19:17;;;;;;;29.03;21.30;;;6.70;96.60;;;;;;5029662;28;20890;-72
2022/03/09 09:21:44;;;;;;;28.30;21.27;;;6.80;96.00;;;;;;5029777;28;20451;-72
2022/03/09 09:24:11;;;;;;;30.00;20.50;;;6.80;94.30;;;;;;5029797;28;20532;-72
2022/03/09 09:26:39;;;;;;;31.93;21.17;;;6.80;92.40;;;;;;5029782;28;20482;-71
2022/03/09 09:29:06;;;;;;;24.80;20.83;;;6.70;93.40;;;;;;5029456;28;20454;-70
2022/03/09 09:31:33;;;;;;;31.80;21.70;;;6.60;94.70;;;;;;5029441;28;20505;-70
2022/03/09 09:34:03;;;;;;;25.63;18.50;;;6.90;93.60;;;;;;5029160;28;20494;-69
2022/03/09 09:36:31;;;;;;;23.10;18.60;;;7.30;92.20;;;;;;5029473;28;20471;-70
2022/03/09 09:38:58;;;;;;;27.57;20.47;;;7.50;90.60;;;;;;5029467;28;20774;-70
2022/03/09 09:41:26;;;;;;;30.80;21.67;;;7.40;90.20;;;;;;5029644;28;20458;-70
2022/03/09 09:43:53;;;;;;;29.60;19.90;;;7.20;91.20;;;;;;5029513;28;20450;-71
2022/03/09 09:46:21;;;;;;;29.00;20.33;;;7.30;92.20;;;;;;5029251;28;21045;-71
2022/03/09 09:48:48;;;;;;;27.07;19.87;;;7.40;92.80;;;;;;5028368;28;20458;-71
2022/03/09 09:51:17;;;;;;;29.13;22.37;;;7.80;92.30;;;;;;5033652;28;20779;-70
2022/03/09 09:53:46;;;;;;;28.33;20.03;;;8.10;90.30;;;;;;5042400;28;20482;-70
2022/03/09 09:56:14;;;;;;;21.77;16.80;;;8.20;90.20;;;;;;5052968;28;21004;-71
2022/03/09 09:58:41;;;;;;;21.53;16.90;;;7.70;80.40;;;;;;5053112;28;20489;-71
2022/03/09 10:01:09;;;;;;;25.00;17.90;;;7.70;79.90;;;;;;5053085;28;20461;-69
2022/03/09 10:03:36;;;;;;;21.73;16.10;;;7.70;82.40;;;;;;5053223;28;20519;-69
2022/03/09 10:06:04;;;;;;;18.10;13.80;;;7.80;77.90;;;;;;5053112;28;20519;-71
2022/03/09 10:08:32;;;;;;;20.40;14.50;;;7.60;77.40;;;;;;5053067;28;20864;-70
2022/03/09 10:11:01;;;;;;;17.90;13.33;;;7.40;78.40;;;;;;5052631;28;20457;-70
2022/03/09 10:13:29;;;;;;;23.03;16.90;;;7.20;74.70;;;;;;5052722;28;20520;-72
2022/03/09 10:16:15;;;;;;;20.90;15.80;;;7.00;78.50;;;;;;5052928;28;20453;-71
2022/03/09 10:18:49;;;;;;;21.73;15.07;;;7.20;81.80;;;;;;5053007;28;20461;-71
2022/03/09 10:21:18;;;;;;;19.10;14.00;;;7.40;81.00;;;;;;5052581;28;21017;-70
2022/03/09 10:24:07;;;;;;;21.40;13.93;;;7.50;78.70;;;;;;5052565;28;20505;-70
2022/03/09 10:26:47;;;;;;;23.53;14.80;;;7.20;76.70;;;;;;5052915;28;20953;-72
2022/03/09 10:29:16;;;;;;;17.70;14.97;;;7.00;79.90;;;;;;5052765;28;20449;-72
2022/03/09 10:31:46;;;;;;;17.93;13.87;;;7.00;81.30;;;;;;5052202;28;20457;-70
2022/03/09 10:34:16;;;;;;;23.10;14.70;;;7.10;82.10;;;;;;5052673;28;20458;-70
2022/03/09 10:36:58;;;;;;;19.67;14.60;;;7.20;81.80;;;;;;5052539;28;20449;-69
2022/03/09 10:39:28;;;;;;;18.73;13.73;;;7.50;81.70;;;;;;5052425;28;20465;-70
2022/03/09 10:41:58;;;;;;;21.17;15.13;;;7.80;77.20;;;;;;5052428;28;20470;-71
2022/03/09 10:44:44;;;;;;;22.50;15.63;;;7.70;75.00;;;;;;5052194;28;20456;-72
2022/03/09 10:47:11;;;;;;;19.37;14.37;;;7.80;76.90;;;;;;5052357;28;20533;-70
2022/03/09 10:49:39;;;;;;;19.27;13.70;;;8.10;81.60;;;;;;5052279;28;20458;-70
2022/03/09 10:52:06;;;;;;;20.90;14.93;;;8.60;77.10;;;;;;5052206;28;20486;-72
2022/03/09 10:54:35;;;;;;;19.87;12.83;;;8.70;75.90;;;;;;5051745;28;20472;-69
2022/03/09 10:57:08;;;;;;;17.23;12.20;;;8.40;70.30;;;;;;5051843;28;20473;-70
2022/03/09 10:59:46;;;;;;;14.60;10.97;;;7.90;68.50;;;;;;5051863;28;20454;-72
2022/03/09 11:02:16;;;;;;;17.83;12.90;;;7.70;68.50;;;;;;5052069;28;20796;-72
2022/03/09 11:04:43;;;;;;;14.73;11.13;;;7.70;70.50;;;;;;5052044;28;20453;-70
2022/03/09 11:07:10;;;;;;;16.87;12.57;;;7.40;66.60;;;;;;5051911;28;20484;-70
2022/03/09 11:09:38;;;;;;;15.07;11.30;;;7.30;67.40;;;;;;5051585;28;20472;-70
2022/03/09 11:12:06;;;;;;;16.90;12.70;;;7.40;66.10;;;;;;5051731;28;20453;-71
2022/03/09 11:14:35;;;;;;;19.93;12.60;;;7.40;70.80;;;;;;5050232;28;20465;-70
2022/03/09 11:17:02;;;;;;;13.57;10.17;;;7.60;69.80;;;;;;5051484;28;20520;-71
2022/03/09 11:19:29;;;;;;;14.60;11.40;;;7.70;69.80;;;;;;5051083;28;20449;-72
2022/03/09 11:21:56;;;;;;;16.47;11.63;;;7.90;68.70;;;;;;5051444;28;20525;-69
2022/03/09 11:24:24;;;;;;;14.77;10.73;;;8.20;67.80;;;;;;5051682;28;20465;-70
2022/03/09 11:26:57;;;;;;;17.10;11.33;;;8.40;64.80;;;;;;5049809;28;21001;-69
2022/03/09 11:29:33;;;;;;;16.77;12.23;;;8.70;64.20;;;;;;5050240;28;20465;-69
2022/03/09 11:32:01;;;;;;;13.47;10.30;;;8.80;64.10;;;;;;5051240;28;20476;-70
2022/03/09 11:34:41;;;;;;;17.33;13.13;;;9.00;60.60;;;;;;5050773;28;20454;-71
2022/03/09 11:37:10;;;;;;;17.80;12.60;;;8.60;60.30;;;;;;5050955;28;20507;-70
2022/03/09 11:39:38;;;;;;;13.87;10.77;;;8.60;64.30;;;;;;5051896;28;20863;-69
2022/03/09 11:42:31;;;;;;;14.17;10.73;;;8.40;59.70;;;;;;5051477;28;20454;-70
2022/03/09 11:45:32;;;;;;;15.50;11.57;;;8.10;62.00;;;;;;5051526;28;20464;-70
2022/03/09 11:48:03;;;;;;;16.37;11.20;;;7.80;63.00;;;;;;4988988;28;20451;-69
2022/03/09 11:50:32;;;;;;;18.93;13.20;;;7.80;64.60;;;;;;4988892;28;20488;-68
2022/03/09 11:53:01;;;;;;;18.90;13.10;;;7.60;68.00;;;;;;5019161;28;21069;-70
2022/03/09 11:55:29;;;;;;;18.40;12.17;;;7.50;68.10;;;;;;5050722;28;20953;-71
2022/03/09 11:58:10;;;;;;;17.60;12.70;;;7.10;70.20;;;;;;5050775;28;20458;-70
2022/03/09 12:00:38;;;;;;;15.03;10.57;;;7.20;72.10;;;;;;5050526;28;20465;-70
2022/03/09 12:03:05;;;;;;;16.77;10.90;;;7.30;70.10;;;;;;5050721;28;20879;-71
2022/03/09 12:05:39;;;;;;;13.10;10.00;;;7.30;70.10;;;;;;5050479;28;20458;-70
2022/03/09 12:08:07;;;;;;;19.03;10.27;;;7.30;68.10;;;;;;5050624;28;20978;-74
2022/03/09 12:10:52;;;;;;;14.30;9.83;;;7.20;67.50;;;;;;5050418;28;20466;-71
2022/03/09 12:13:33;;;;;;;12.57;9.73;;;6.90;64.90;;;;;;5049982;28;20494;-70
2022/03/09 12:16:24;;;;;;;19.10;10.73;;;7.10;64.70;;;;;;5050443;28;20977;-67
2022/03/09 12:19:07;;;;;;;15.17;10.83;;;7.00;65.40;;;;;;5050791;28;20508;-71
2022/03/09 12:22:05;;;;;;;13.20;9.97;;;6.90;67.70;;;;;;5050618;28;20481;-69
2022/03/09 12:24:40;;;;;;;21.83;14.23;;;6.90;68.20;;;;;;5049979;28;20931;-70
2022/03/09 12:27:27;;;;;;;16.43;12.27;;;7.00;68.40;;;;;;5047103;28;20469;-69
2022/03/09 12:29:56;;;;;;;16.73;12.10;;;6.90;68.80;;;;;;5030432;28;20450;-73
2022/03/09 12:32:24;;;;;;;16.80;11.70;;;7.00;69.50;;;;;;5030022;28;20494;-71
2022/03/09 12:34:53;;;;;;;16.47;11.80;;;7.00;68.20;;;;;;5030298;28;20939;-69
2022/03/09 12:37:25;;;;;;;14.90;10.50;;;7.00;67.80;;;;;;5030257;28;20475;-69
2022/03/09 12:39:58;;;;;;;16.17;11.50;;;7.10;67.90;;;;;;5029919;28;20451;-73
2022/03/09 12:42:27;;;;;;;16.60;11.10;;;6.90;66.40;;;;;;5030428;28;20486;-71
2022/03/09 12:45:00;;;;;;;18.93;11.53;;;6.90;67.40;;;;;;5030386;28;20450;-72
2022/03/09 12:47:27;;;;;;;19.70;12.10;;;6.80;68.70;;;;;;5030010;28;20513;-71